createdAt,value
2017-08-19T00:00:41.964Z,0
2017-08-19T00:01:42.249Z,0
2017-08-19T00:02:42.224Z,0
2017-08-19T00:03:42.197Z,0
2017-08-19T00:04:42.195Z,0
2017-08-19T00:05:41.858Z,0
2017-08-19T00:06:41.839Z,0
2017-08-19T00:07:42.116Z,0
2017-08-19T00:08:42.152Z,0
2017-08-19T00:09:42.071Z,0
2017-08-19T00:10:42.050Z,0
2017-08-19T00:11:41.724Z,0
2017-08-19T00:12:42.011Z,0
2017-08-19T00:13:41.989Z,0
2017-08-19T00:14:41.971Z,0
2017-08-19T00:15:41.943Z,0
2017-08-19T00:16:41.923Z,0
2017-08-19T00:17:41.595Z,0
2017-08-19T00:18:41.868Z,0
2017-08-19T00:19:41.861Z,0
2017-08-19T00:20:41.842Z,0
2017-08-19T00:21:41.823Z,0
2017-08-19T00:22:42.053Z,0
2017-08-19T00:23:41.768Z,0
2017-08-19T00:24:41.471Z,0
2017-08-19T00:25:41.728Z,0
2017-08-19T00:26:41.694Z,0
2017-08-19T00:27:41.684Z,0
2017-08-19T00:28:41.708Z,0
2017-08-19T00:29:41.647Z,0
2017-08-19T00:30:41.631Z,0
2017-08-19T00:31:41.593Z,0
2017-08-19T00:32:41.575Z,0
2017-08-19T00:33:41.242Z,0
2017-08-19T00:34:41.525Z,0
2017-08-19T00:35:41.502Z,0
2017-08-19T00:36:41.178Z,0
2017-08-19T00:37:41.457Z,0
2017-08-19T00:38:41.134Z,0
2017-08-19T00:39:41.463Z,0
2017-08-19T00:40:41.388Z,0
2017-08-19T00:41:41.376Z,0
2017-08-19T00:42:41.347Z,0
2017-08-19T00:43:41.348Z,0
2017-08-19T00:44:41.301Z,0
2017-08-19T00:45:41.291Z,0
2017-08-19T00:46:41.006Z,0
2017-08-19T00:47:41.283Z,0
2017-08-19T00:48:41.224Z,0
2017-08-19T00:49:41.203Z,0
2017-08-19T00:50:41.195Z,0
2017-08-19T00:51:41.155Z,0
2017-08-19T00:52:41.123Z,0
2017-08-19T00:53:41.109Z,0
2017-08-19T00:54:41.075Z,0
2017-08-19T00:55:41.059Z,0
2017-08-19T00:56:41.049Z,0
2017-08-19T00:57:41.017Z,0
2017-08-19T00:58:40.999Z,0
2017-08-19T00:59:40.974Z,0
2017-08-19T01:00:41.209Z,0
2017-08-19T01:01:40.635Z,0
2017-08-19T01:02:40.608Z,0
2017-08-19T01:03:40.580Z,0
2017-08-19T01:04:40.861Z,0
2017-08-19T01:05:40.845Z,0
2017-08-19T01:06:40.817Z,0
2017-08-19T01:07:40.796Z,0
2017-08-19T01:08:40.473Z,0
2017-08-19T01:09:40.457Z,0
2017-08-19T01:10:40.754Z,0
2017-08-19T01:11:40.716Z,0
2017-08-19T01:12:40.686Z,0
2017-08-19T01:13:40.663Z,0
2017-08-19T01:14:40.640Z,0
2017-08-19T01:15:40.619Z,0
2017-08-19T01:16:40.300Z,0
2017-08-19T01:17:40.584Z,0
2017-08-19T01:18:40.540Z,0
2017-08-19T01:19:40.532Z,0
2017-08-19T01:20:40.519Z,0
2017-08-19T01:21:40.189Z,0
2017-08-19T01:22:40.464Z,0
2017-08-19T01:23:40.439Z,0
2017-08-19T01:24:40.428Z,0
2017-08-19T01:25:40.399Z,0
2017-08-19T01:26:40.382Z,0
2017-08-19T01:27:40.361Z,0
2017-08-19T01:28:40.342Z,0
2017-08-19T01:29:40.524Z,0
2017-08-19T01:30:40.303Z,0
2017-08-19T01:31:40.272Z,0
2017-08-19T01:32:40.240Z,0
2017-08-19T01:33:40.217Z,0
2017-08-19T01:34:40.206Z,0
2017-08-19T01:35:39.875Z,0
2017-08-19T01:36:40.153Z,0
2017-08-19T01:37:40.135Z,0
2017-08-19T01:38:40.123Z,0
2017-08-19T01:39:40.093Z,0
2017-08-19T01:40:40.074Z,0
2017-08-19T01:41:40.051Z,0
2017-08-19T01:42:40.036Z,0
2017-08-19T01:43:40.001Z,0
2017-08-19T01:44:39.995Z,0
2017-08-19T01:45:39.968Z,0
2017-08-19T01:46:39.940Z,0
2017-08-19T01:47:39.920Z,0
2017-08-19T01:48:39.886Z,0
2017-08-19T01:49:39.879Z,0
2017-08-19T01:50:39.858Z,0
2017-08-19T01:51:39.826Z,0
2017-08-19T01:52:39.860Z,0
2017-08-19T01:53:39.791Z,0
2017-08-19T01:54:39.763Z,0
2017-08-19T01:55:39.738Z,0
2017-08-19T01:56:39.423Z,0
2017-08-19T01:57:39.698Z,0
2017-08-19T01:58:39.673Z,0
2017-08-19T01:59:39.652Z,0
2017-08-19T02:00:39.638Z,0
2017-08-19T02:01:39.361Z,0
2017-08-19T02:02:39.598Z,0
2017-08-19T02:03:39.566Z,0
2017-08-19T02:04:39.541Z,0
2017-08-19T02:05:39.521Z,0
2017-08-19T02:06:39.197Z,0
2017-08-19T02:07:39.472Z,0
2017-08-19T02:08:39.451Z,0
2017-08-19T02:09:39.440Z,0
2017-08-19T02:10:39.414Z,0
2017-08-19T02:11:39.393Z,0
2017-08-19T02:12:39.052Z,0
2017-08-19T02:13:39.347Z,0
2017-08-19T02:14:39.333Z,0
2017-08-19T02:15:39.311Z,0
2017-08-19T02:16:39.271Z,0
2017-08-19T02:17:39.258Z,0
2017-08-19T02:18:39.239Z,0
2017-08-19T02:19:39.213Z,0
2017-08-19T02:20:39.187Z,0
2017-08-19T02:21:39.164Z,0
2017-08-19T02:22:39.186Z,0
2017-08-19T02:23:38.818Z,0
2017-08-19T02:24:39.095Z,0
2017-08-19T02:25:38.474Z,0
2017-08-19T02:26:39.049Z,0
2017-08-19T02:27:39.080Z,0
2017-08-19T02:28:39.014Z,0
2017-08-19T02:29:38.989Z,0
2017-08-19T02:30:38.972Z,0
2017-08-19T02:31:38.954Z,0
2017-08-19T02:32:38.920Z,0
2017-08-19T02:33:38.902Z,0
2017-08-19T02:34:38.877Z,0
2017-08-19T02:35:38.865Z,0
2017-08-19T02:36:38.830Z,0
2017-08-19T02:37:38.817Z,0
2017-08-19T02:38:38.838Z,0
2017-08-19T02:39:38.773Z,0
2017-08-19T02:40:38.445Z,0
2017-08-19T02:41:38.718Z,0
2017-08-19T02:42:38.744Z,0
2017-08-19T02:43:38.674Z,0
2017-08-19T02:44:38.656Z,0
2017-08-19T02:45:38.640Z,0
2017-08-19T02:46:38.309Z,0
2017-08-19T02:47:38.591Z,0
2017-08-19T02:48:38.266Z,0
2017-08-19T02:49:38.605Z,0
2017-08-19T02:50:38.524Z,0
2017-08-19T02:51:38.522Z,0
2017-08-19T02:52:38.473Z,0
2017-08-19T02:53:38.466Z,0
2017-08-19T02:54:38.482Z,0
2017-08-19T02:55:38.410Z,0
2017-08-19T02:56:38.410Z,0
2017-08-19T02:57:38.370Z,0
2017-08-19T02:58:38.044Z,0
2017-08-19T02:59:38.325Z,0
2017-08-19T03:00:38.297Z,0
2017-08-19T03:01:38.272Z,0
2017-08-19T03:02:38.263Z,0
2017-08-19T03:03:38.236Z,0
2017-08-19T03:04:38.215Z,0
2017-08-19T03:05:38.182Z,0
2017-08-19T03:06:38.216Z,0
2017-08-19T03:07:38.141Z,0
2017-08-19T03:08:38.123Z,0
2017-08-19T03:09:38.095Z,0
2017-08-19T03:10:38.089Z,0
2017-08-19T03:11:38.058Z,0
2017-08-19T03:12:38.039Z,0
2017-08-19T03:13:38.013Z,0
2017-08-19T03:14:38.003Z,0
2017-08-19T03:15:37.966Z,0
2017-08-19T03:16:37.947Z,0
2017-08-19T03:17:37.928Z,0
2017-08-19T03:18:37.958Z,0
2017-08-19T03:19:37.881Z,0
2017-08-19T03:20:37.858Z,0
2017-08-19T03:21:37.838Z,0
2017-08-19T03:22:37.814Z,0
2017-08-19T03:23:37.792Z,0
2017-08-19T03:24:37.777Z,0
2017-08-19T03:25:37.745Z,0
2017-08-19T03:26:37.420Z,0
2017-08-19T03:27:37.423Z,0
2017-08-19T03:28:37.691Z,0
2017-08-19T03:29:37.665Z,0
2017-08-19T03:30:37.653Z,0
2017-08-19T03:31:37.324Z,0
2017-08-19T03:32:37.700Z,0
2017-08-19T03:33:37.577Z,0
2017-08-19T03:34:37.552Z,0
2017-08-19T03:35:37.225Z,0
2017-08-19T03:36:37.509Z,0
2017-08-19T03:37:37.495Z,0
2017-08-19T03:38:37.462Z,0
2017-08-19T03:39:37.460Z,0
2017-08-19T03:40:37.425Z,0
2017-08-19T03:41:37.091Z,0
2017-08-19T03:42:37.073Z,0
2017-08-19T03:43:37.352Z,0
2017-08-19T03:44:37.334Z,4
2017-08-19T03:45:37.303Z,4
2017-08-19T03:46:37.290Z,4
2017-08-19T03:47:37.256Z,4
2017-08-19T03:48:37.235Z,4
2017-08-19T03:49:37.220Z,4
2017-08-19T03:50:37.190Z,4
2017-08-19T03:51:36.871Z,8
2017-08-19T03:52:37.148Z,4
2017-08-19T03:53:36.825Z,8
2017-08-19T03:54:37.112Z,8
2017-08-19T03:55:37.084Z,12
2017-08-19T03:56:37.069Z,12
2017-08-19T03:57:37.034Z,16
2017-08-19T03:58:37.019Z,16
2017-08-19T03:59:37.039Z,20
2017-08-19T04:00:36.970Z,24
2017-08-19T04:01:36.943Z,24
2017-08-19T04:02:36.625Z,32
2017-08-19T04:03:36.603Z,32
2017-08-19T04:04:36.898Z,40
2017-08-19T04:05:36.864Z,48
2017-08-19T04:06:36.847Z,52
2017-08-19T04:07:36.808Z,60
2017-08-19T04:08:36.801Z,68
2017-08-19T04:09:36.770Z,76
2017-08-19T04:10:36.740Z,88
2017-08-19T04:11:36.726Z,96
2017-08-19T04:12:36.702Z,108
2017-08-19T04:13:36.679Z,120
2017-08-19T04:14:36.354Z,128
2017-08-19T04:15:36.634Z,140
2017-08-19T04:16:36.321Z,156
2017-08-19T04:17:36.617Z,172
2017-08-19T04:18:36.615Z,184
2017-08-19T04:19:36.554Z,204
2017-08-19T04:20:36.523Z,220
2017-08-19T04:21:36.199Z,240
2017-08-19T04:22:36.689Z,260
2017-08-19T04:23:36.483Z,280
2017-08-19T04:24:36.446Z,304
2017-08-19T04:25:36.416Z,328
2017-08-19T04:26:36.391Z,356
2017-08-19T04:27:36.378Z,384
2017-08-19T04:28:36.351Z,416
2017-08-19T04:29:36.021Z,444
2017-08-19T04:30:36.304Z,480
2017-08-19T04:31:35.981Z,512
2017-08-19T04:32:36.316Z,552
2017-08-19T04:33:36.240Z,588
2017-08-19T04:34:36.208Z,628
2017-08-19T04:35:36.201Z,672
2017-08-19T04:36:36.167Z,724
2017-08-19T04:37:36.152Z,780
2017-08-19T04:38:35.827Z,844
2017-08-19T04:39:35.801Z,916
2017-08-19T04:40:36.080Z,1020
2017-08-19T04:41:36.062Z,1152
2017-08-19T04:42:36.035Z,1296
2017-08-19T04:43:36.019Z,1432
2017-08-19T04:44:35.994Z,1568
2017-08-19T04:45:35.978Z,1692
2017-08-19T04:46:35.697Z,1804
2017-08-19T04:47:35.975Z,1916
2017-08-19T04:48:36.159Z,2040
2017-08-19T04:49:35.581Z,2188
2017-08-19T04:50:35.914Z,2348
2017-08-19T04:51:35.842Z,2504
2017-08-19T04:52:35.825Z,2676
2017-08-19T04:53:35.846Z,2812
2017-08-19T04:54:35.776Z,2976
2017-08-19T04:55:35.742Z,3128
2017-08-19T04:56:35.738Z,3308
2017-08-19T04:57:35.707Z,3464
2017-08-19T04:58:35.729Z,3616
2017-08-19T04:59:35.668Z,3756
2017-08-19T05:00:35.343Z,3916
2017-08-19T05:01:35.838Z,4100
2017-08-19T05:02:35.599Z,4232
2017-08-19T05:03:35.286Z,4424
2017-08-19T05:04:35.576Z,4564
2017-08-19T05:05:35.529Z,4676
2017-08-19T05:06:35.506Z,4824
2017-08-19T05:07:35.187Z,4948
2017-08-19T05:08:35.492Z,5136
2017-08-19T05:09:50.055Z,5320
2017-08-19T05:10:35.419Z,5444
2017-08-19T05:11:35.402Z,5596
2017-08-19T05:12:35.379Z,5836
2017-08-19T05:13:35.067Z,5856
2017-08-19T05:14:35.039Z,6096
2017-08-19T05:15:35.313Z,6256
2017-08-19T05:16:34.990Z,6324
2017-08-19T05:17:35.283Z,6552
2017-08-19T05:18:34.950Z,6708
2017-08-19T05:19:35.232Z,6988
2017-08-19T05:20:35.207Z,7152
2017-08-19T05:21:35.215Z,7340
2017-08-19T05:22:35.379Z,7452
2017-08-19T05:23:35.146Z,7548
2017-08-19T05:24:35.134Z,7768
2017-08-19T05:25:35.103Z,7816
2017-08-19T05:26:35.078Z,7760
2017-08-19T05:27:35.072Z,7984
2017-08-19T05:28:34.446Z,8320
2017-08-19T05:29:35.014Z,8580
2017-08-19T05:30:35.009Z,8756
2017-08-19T05:31:34.979Z,8936
2017-08-19T05:32:35.020Z,9108
2017-08-19T05:33:35.239Z,9224
2017-08-19T05:34:34.618Z,9428
2017-08-19T05:35:34.293Z,9608
2017-08-19T05:36:34.883Z,9820
2017-08-19T05:37:34.870Z,10060
2017-08-19T05:38:34.839Z,10160
2017-08-19T05:39:34.818Z,10304
2017-08-19T05:40:34.499Z,10440
2017-08-19T05:41:34.781Z,10672
2017-08-19T05:42:34.764Z,10756
2017-08-19T05:43:34.742Z,11012
2017-08-19T05:44:34.730Z,11116
2017-08-19T05:45:34.402Z,11248
2017-08-19T05:46:34.686Z,11356
2017-08-19T05:47:34.356Z,11656
2017-08-19T05:48:34.645Z,11956
2017-08-19T05:49:34.619Z,12088
2017-08-19T05:50:34.310Z,12204
2017-08-19T05:51:34.604Z,12296
2017-08-19T05:52:34.267Z,12376
2017-08-19T05:53:34.535Z,12580
2017-08-19T05:54:34.278Z,12624
2017-08-19T05:55:34.510Z,12828
2017-08-19T05:56:34.483Z,12888
2017-08-19T05:57:34.176Z,12964
2017-08-19T05:58:34.449Z,13088
2017-08-19T05:59:34.426Z,13224
2017-08-19T06:00:34.408Z,13028
2017-08-19T06:01:34.416Z,13252
2017-08-19T06:02:34.378Z,13352
2017-08-19T06:03:34.359Z,13512
2017-08-19T06:04:34.333Z,13588
2017-08-19T06:05:34.042Z,13628
2017-08-19T06:06:33.993Z,13936
2017-08-19T06:07:34.288Z,13936
2017-08-19T06:08:34.265Z,14080
2017-08-19T06:09:34.243Z,13828
2017-08-19T06:10:34.222Z,14400
2017-08-19T06:11:34.207Z,14560
2017-08-19T06:12:34.192Z,14880
2017-08-19T06:13:34.173Z,15072
2017-08-19T06:14:34.153Z,15168
2017-08-19T06:15:34.134Z,12944
2017-08-19T06:16:34.121Z,15648
2017-08-19T06:17:34.157Z,15872
2017-08-19T06:18:34.080Z,15680
2017-08-19T06:19:34.115Z,15744
2017-08-19T06:20:34.050Z,16352
2017-08-19T06:21:34.047Z,16384
2017-08-19T06:22:35.246Z,16480
2017-08-19T06:23:35.571Z,16768
2017-08-19T06:24:35.502Z,17184
2017-08-19T06:25:35.472Z,17056
2017-08-19T06:26:35.235Z,17120
2017-08-19T06:27:35.282Z,17376
2017-08-19T06:28:35.515Z,18048
2017-08-19T06:29:35.412Z,18400
2017-08-19T06:30:33.990Z,19328
2017-08-19T06:31:33.933Z,19360
2017-08-19T06:32:33.835Z,20224
2017-08-19T06:33:33.822Z,19520
2017-08-19T06:34:33.817Z,19776
2017-08-19T06:35:33.782Z,22400
2017-08-19T06:36:33.821Z,19552
2017-08-19T06:37:33.761Z,28416
2017-08-19T06:38:33.746Z,28000
2017-08-19T06:39:33.738Z,27296
2017-08-19T06:40:33.756Z,26880
2017-08-19T06:41:33.713Z,18432
2017-08-19T06:42:33.678Z,14496
2017-08-19T06:43:33.661Z,15240
2017-08-19T06:44:33.647Z,15172
2017-08-19T06:45:33.630Z,14288
2017-08-19T06:46:33.620Z,13444
2017-08-19T06:47:33.611Z,10440
2017-08-19T06:48:33.597Z,9952
2017-08-19T06:49:33.560Z,9308
2017-08-19T06:50:33.547Z,10872
2017-08-19T06:51:33.527Z,8580
2017-08-19T06:52:33.511Z,11344
2017-08-19T06:53:33.550Z,16544
2017-08-19T06:54:33.527Z,20512
2017-08-19T06:55:33.463Z,30528
2017-08-19T06:56:33.434Z,20000
2017-08-19T06:57:33.435Z,20544
2017-08-19T06:58:33.409Z,15264
2017-08-19T06:59:33.096Z,18016
2017-08-19T07:00:33.585Z,14476
2017-08-19T07:01:33.558Z,12876
2017-08-19T07:02:33.329Z,13088
2017-08-19T07:03:33.325Z,13320
2017-08-19T07:04:33.348Z,13852
2017-08-19T07:05:33.282Z,13572
2017-08-19T07:06:33.286Z,13212
2017-08-19T07:07:33.246Z,14088
2017-08-19T07:08:33.221Z,13820
2017-08-19T07:09:33.270Z,10760
2017-08-19T07:10:33.191Z,8884
2017-08-19T07:11:47.836Z,9288
2017-08-19T07:12:33.145Z,11404
2017-08-19T07:13:33.140Z,12016
2017-08-19T07:14:33.168Z,12012
2017-08-19T07:15:33.102Z,13272
2017-08-19T07:16:32.774Z,10412
2017-08-19T07:17:32.757Z,11060
2017-08-19T07:18:33.043Z,12436
2017-08-19T07:19:33.020Z,10748
2017-08-19T07:20:33.009Z,23104
2017-08-19T07:21:33.040Z,33312
2017-08-19T07:22:32.961Z,18336
2017-08-19T07:23:32.945Z,7684
2017-08-19T07:24:32.938Z,4528
2017-08-19T07:25:32.915Z,4164
2017-08-19T07:26:32.991Z,4940
2017-08-19T07:27:32.274Z,8776
2017-08-19T07:28:32.897Z,11260
2017-08-19T07:29:32.832Z,11792
2017-08-19T07:30:32.809Z,11396
2017-08-19T07:31:32.488Z,10144
2017-08-19T07:32:32.765Z,10548
2017-08-19T07:33:32.759Z,10844
2017-08-19T07:34:32.734Z,9680
2017-08-19T07:35:32.712Z,7360
2017-08-19T07:36:32.697Z,4464
2017-08-19T07:37:32.724Z,3468
2017-08-19T07:38:32.349Z,3692
2017-08-19T07:39:32.632Z,5108
2017-08-19T07:40:32.608Z,5620
2017-08-19T07:41:32.593Z,7820
2017-08-19T07:42:32.572Z,5620
2017-08-19T07:43:32.548Z,5808
2017-08-19T07:44:32.554Z,6452
2017-08-19T07:45:32.520Z,5928
2017-08-19T07:46:32.546Z,7292
2017-08-19T07:47:32.471Z,8012
2017-08-19T07:48:32.513Z,10136
2017-08-19T07:49:32.436Z,11288
2017-08-19T07:50:32.415Z,8012
2017-08-19T07:51:32.446Z,8620
2017-08-19T07:52:32.084Z,11024
2017-08-19T07:53:32.053Z,12484
2017-08-19T07:54:32.347Z,12736
2017-08-19T07:55:32.318Z,13792
2017-08-19T07:56:32.299Z,21824
2017-08-19T07:57:32.288Z,20032
2017-08-19T07:58:32.263Z,21600
2017-08-19T07:59:32.248Z,19104
2017-08-19T08:00:32.283Z,51104
2017-08-19T08:01:31.891Z,27680
2017-08-19T08:02:32.172Z,19328
2017-08-19T08:03:32.153Z,21536
2017-08-19T08:04:32.135Z,21280
2017-08-19T08:05:32.118Z,19488
2017-08-19T08:06:31.789Z,15276
2017-08-19T08:07:31.768Z,10956
2017-08-19T08:08:32.053Z,12604
2017-08-19T08:09:32.039Z,10828
2017-08-19T08:10:32.020Z,10984
2017-08-19T08:11:31.389Z,13676
2017-08-19T08:12:31.984Z,20192
2017-08-19T08:13:31.959Z,9200
2017-08-19T08:14:31.340Z,9964
2017-08-19T08:15:31.912Z,11144
2017-08-19T08:16:31.905Z,16504
2017-08-19T08:17:31.885Z,18016
2017-08-19T08:18:31.853Z,24064
2017-08-19T08:19:31.836Z,21120
2017-08-19T08:20:31.820Z,17920
2017-08-19T08:21:31.497Z,12756
2017-08-19T08:22:31.780Z,13384
2017-08-19T08:23:31.768Z,14744
2017-08-19T08:24:31.743Z,14284
2017-08-19T08:25:31.720Z,7276
2017-08-19T08:26:31.705Z,9680
2017-08-19T08:27:31.698Z,13660
2017-08-19T08:28:31.674Z,10752
2017-08-19T08:29:31.653Z,6480
2017-08-19T08:30:31.663Z,5976
2017-08-19T08:31:31.619Z,4788
2017-08-19T08:32:31.590Z,6916
2017-08-19T08:33:31.565Z,7740
2017-08-19T08:34:31.257Z,6956
2017-08-19T08:35:31.280Z,5452
2017-08-19T08:36:31.506Z,7872
2017-08-19T08:37:31.531Z,7348
2017-08-19T08:38:31.465Z,4760
2017-08-19T08:39:31.141Z,7480
2017-08-19T08:40:31.428Z,9408
2017-08-19T08:41:31.410Z,9612
2017-08-19T08:42:31.388Z,8980
2017-08-19T08:43:31.370Z,15604
2017-08-19T08:44:31.363Z,11792
2017-08-19T08:45:31.360Z,14216
2017-08-19T08:46:31.325Z,18560
2017-08-19T08:47:31.301Z,9444
2017-08-19T08:48:31.266Z,7664
2017-08-19T08:49:31.251Z,9676
2017-08-19T08:50:31.230Z,10216
2017-08-19T08:51:31.211Z,9592
2017-08-19T08:52:31.193Z,9276
2017-08-19T08:53:31.197Z,9864
2017-08-19T08:54:31.355Z,10536
2017-08-19T08:55:31.180Z,9120
2017-08-19T08:56:31.106Z,8868
2017-08-19T08:57:31.090Z,10712
2017-08-19T08:58:31.072Z,10352
2017-08-19T08:59:30.757Z,39456
2017-08-19T09:00:31.038Z,20832
2017-08-19T09:01:31.076Z,19360
2017-08-19T09:02:30.999Z,52640
2017-08-19T09:03:30.975Z,66880
2017-08-19T09:04:30.953Z,73312
2017-08-19T09:05:31.000Z,70656
2017-08-19T09:06:30.928Z,60448
2017-08-19T09:07:31.159Z,77184
2017-08-19T09:08:45.494Z,27104
2017-08-19T09:09:30.907Z,31040
2017-08-19T09:10:30.842Z,58976
2017-08-19T09:11:31.024Z,57504
2017-08-19T09:12:30.806Z,57984
2017-08-19T09:13:30.800Z,68064
2017-08-19T09:14:30.829Z,23392
2017-08-19T09:15:30.754Z,54016
2017-08-19T09:16:30.442Z,17184
2017-08-19T09:17:30.730Z,43808
2017-08-19T09:18:30.413Z,30016
2017-08-19T09:19:30.702Z,18208
2017-08-19T09:20:30.390Z,13452
2017-08-19T09:21:30.669Z,12048
2017-08-19T09:22:30.647Z,17472
2017-08-19T09:23:30.672Z,13736
2017-08-19T09:24:30.645Z,8968
2017-08-19T09:25:30.605Z,9188
2017-08-19T09:26:30.611Z,12828
2017-08-19T09:27:30.567Z,12820
2017-08-19T09:28:30.563Z,11648
2017-08-19T09:29:30.552Z,10804
2017-08-19T09:30:30.424Z,9836
2017-08-19T09:31:30.526Z,6976
2017-08-19T09:32:30.491Z,4920
2017-08-19T09:33:30.472Z,6880
2017-08-19T09:34:30.455Z,7244
2017-08-19T09:35:30.437Z,7396
2017-08-19T09:36:29.828Z,5772
2017-08-19T09:37:30.404Z,8816
2017-08-19T09:38:30.389Z,9160
2017-08-19T09:39:30.358Z,10224
2017-08-19T09:40:30.561Z,8544
2017-08-19T09:41:30.321Z,8236
2017-08-19T09:42:30.009Z,10788
2017-08-19T09:43:30.292Z,11708
2017-08-19T09:44:30.268Z,10612
2017-08-19T09:45:30.305Z,15836
2017-08-19T09:46:30.233Z,24064
2017-08-19T09:47:29.919Z,22528
2017-08-19T09:48:29.894Z,22176
2017-08-19T09:49:30.175Z,23296
2017-08-19T09:50:30.154Z,14676
2017-08-19T09:51:30.146Z,17952
2017-08-19T09:52:29.822Z,12696
2017-08-19T09:53:30.107Z,36736
2017-08-19T09:54:30.095Z,16068
2017-08-19T09:55:30.075Z,19584
2017-08-19T09:56:29.755Z,24000
2017-08-19T09:57:29.745Z,25024
2017-08-19T09:58:30.011Z,18976
2017-08-19T10:00:29.970Z,23744
2017-08-19T10:01:29.951Z,19168
2017-08-19T10:02:29.634Z,21088
2017-08-19T10:03:29.920Z,18048
2017-08-19T10:04:29.898Z,19552
2017-08-19T10:05:29.904Z,30720
2017-08-19T10:06:29.560Z,33120
2017-08-19T10:07:29.860Z,20704
2017-08-19T10:08:29.828Z,17856
2017-08-19T10:09:29.810Z,20992
2017-08-19T10:10:29.803Z,21056
2017-08-19T10:11:29.467Z,21504
2017-08-19T10:12:29.750Z,21568
2017-08-19T10:13:29.729Z,55264
2017-08-19T10:14:29.728Z,32288
2017-08-19T10:15:29.709Z,31680
2017-08-19T10:16:29.685Z,88768
2017-08-19T10:17:29.672Z,70944
2017-08-19T10:18:29.761Z,65408
2017-08-19T10:19:29.683Z,20320
2017-08-19T10:20:29.811Z,16416
2017-08-19T10:21:29.307Z,13596
2017-08-19T10:22:29.595Z,17376
2017-08-19T10:23:29.771Z,12852
2017-08-19T10:24:29.566Z,19392
2017-08-19T10:25:29.532Z,21312
2017-08-19T10:26:29.512Z,18944
2017-08-19T10:27:29.568Z,22176
2017-08-19T10:28:29.482Z,69056
2017-08-19T10:29:29.465Z,50976
2017-08-19T10:30:29.146Z,52096
2017-08-19T10:31:29.429Z,45504
2017-08-19T10:32:29.423Z,82944
2017-08-19T10:33:29.392Z,17248
2017-08-19T10:34:29.380Z,23392
2017-08-19T10:35:29.372Z,88928
2017-08-19T10:36:29.343Z,71968
2017-08-19T10:37:29.342Z,72608
2017-08-19T10:38:29.333Z,44096
2017-08-19T10:39:29.011Z,13480
2017-08-19T10:40:29.290Z,9980
2017-08-19T10:41:28.981Z,10484
2017-08-19T10:42:29.259Z,12368
2017-08-19T10:43:29.704Z,14808
2017-08-19T10:44:29.220Z,12660
2017-08-19T10:45:29.211Z,18720
2017-08-19T10:46:29.194Z,15492
2017-08-19T10:47:29.186Z,14808
2017-08-19T10:48:29.171Z,9368
2017-08-19T10:49:29.148Z,12924
2017-08-19T10:50:29.193Z,13028
2017-08-19T10:51:29.111Z,13268
2017-08-19T10:52:29.090Z,13684
2017-08-19T10:53:28.781Z,16636
2017-08-19T10:54:28.758Z,11400
2017-08-19T10:55:28.756Z,14368
2017-08-19T10:56:29.033Z,12828
2017-08-19T10:57:29.211Z,13316
2017-08-19T10:58:28.996Z,16348
2017-08-19T10:59:29.002Z,15996
2017-08-19T11:00:29.165Z,16704
2017-08-19T11:01:28.942Z,18432
2017-08-19T11:02:28.933Z,21856
2017-08-19T11:03:28.958Z,18848
2017-08-19T11:04:43.499Z,16060
2017-08-19T11:05:28.564Z,19328
2017-08-19T11:06:28.863Z,12444
2017-08-19T11:07:28.831Z,13652
2017-08-19T11:08:28.520Z,17536
2017-08-19T11:09:28.807Z,19360
2017-08-19T11:10:28.781Z,21248
2017-08-19T11:11:28.766Z,19712
2017-08-19T11:12:28.757Z,19424
2017-08-19T11:13:28.484Z,17632
2017-08-19T11:14:28.722Z,18368
2017-08-19T11:15:28.706Z,19840
2017-08-19T11:16:28.680Z,20704
2017-08-19T11:17:28.360Z,22816
2017-08-19T11:18:28.642Z,22336
2017-08-19T11:19:28.634Z,21568
2017-08-19T11:20:28.321Z,23776
2017-08-19T11:21:28.586Z,24928
2017-08-19T11:22:28.567Z,24320
2017-08-19T11:23:28.766Z,24096
2017-08-19T11:24:28.547Z,23808
2017-08-19T11:25:28.470Z,23904
2017-08-19T11:26:28.238Z,22880
2017-08-19T11:27:28.480Z,24128
2017-08-19T11:28:28.478Z,23072
2017-08-19T11:29:28.457Z,22304
2017-08-19T11:30:28.430Z,23712
2017-08-19T11:31:28.172Z,22272
2017-08-19T11:32:28.398Z,21920
2017-08-19T11:33:28.380Z,22112
2017-08-19T11:34:28.372Z,23360
2017-08-19T11:35:28.401Z,23680
2017-08-19T11:36:28.335Z,25664
2017-08-19T11:37:28.314Z,25920
2017-08-19T11:38:27.995Z,26304
2017-08-19T11:39:28.280Z,23616
2017-08-19T11:40:28.318Z,21088
2017-08-19T11:41:28.296Z,23744
2017-08-19T11:42:28.234Z,24032
2017-08-19T11:43:27.910Z,22688
2017-08-19T11:44:27.900Z,24640
2017-08-19T11:45:28.239Z,23584
2017-08-19T11:46:28.163Z,23040
2017-08-19T11:47:27.847Z,21568
2017-08-19T11:48:28.126Z,20832
2017-08-19T11:49:28.125Z,17760
2017-08-19T11:50:27.795Z,18368
2017-08-19T11:51:28.078Z,19328
2017-08-19T11:52:27.759Z,17568
2017-08-19T11:53:28.044Z,17600
2017-08-19T11:54:28.030Z,17216
2017-08-19T11:55:27.725Z,18624
2017-08-19T11:56:27.991Z,17728
2017-08-19T11:57:27.974Z,14196
2017-08-19T11:58:27.966Z,16376
2017-08-19T11:59:27.943Z,15808
2017-08-19T12:00:28.173Z,16100
2017-08-19T12:01:27.915Z,16832
2017-08-19T12:02:27.890Z,19392
2017-08-19T12:03:27.870Z,18720
2017-08-19T12:04:27.906Z,14760
2017-08-19T12:05:27.851Z,15544
2017-08-19T12:06:27.817Z,11676
2017-08-19T12:07:27.824Z,11044
2017-08-19T12:08:27.537Z,9760
2017-08-19T12:09:27.821Z,8484
2017-08-19T12:10:27.750Z,12832
2017-08-19T12:11:27.730Z,11704
2017-08-19T12:12:27.720Z,14020
2017-08-19T12:13:27.743Z,14760
2017-08-19T12:14:27.684Z,11212
2017-08-19T12:15:27.671Z,15512
2017-08-19T12:16:27.639Z,13976
2017-08-19T12:17:27.644Z,12572
2017-08-19T12:18:27.611Z,12944
2017-08-19T12:19:27.586Z,11528
2017-08-19T12:20:27.782Z,13780
2017-08-19T12:21:27.546Z,15728
2017-08-19T12:22:27.808Z,16392
2017-08-19T12:23:27.517Z,18464
2017-08-19T12:24:27.517Z,16748
2017-08-19T12:25:27.486Z,14544
2017-08-19T12:26:27.459Z,15384
2017-08-19T12:27:27.206Z,20320
2017-08-19T12:28:27.121Z,21184
2017-08-19T12:29:27.403Z,16864
2017-08-19T12:30:27.398Z,15060
2017-08-19T12:31:27.375Z,15504
2017-08-19T12:32:27.362Z,14852
2017-08-19T12:33:27.330Z,12952
2017-08-19T12:34:27.013Z,12148
2017-08-19T12:35:27.302Z,13844
2017-08-19T12:36:27.281Z,14616
2017-08-19T12:37:27.266Z,19360
2017-08-19T12:38:27.258Z,18496
2017-08-19T12:39:27.219Z,17152
2017-08-19T12:40:27.211Z,18208
2017-08-19T12:41:27.252Z,18816
2017-08-19T12:42:27.179Z,18784
2017-08-19T12:43:27.212Z,17408
2017-08-19T12:44:27.142Z,17216
2017-08-19T12:45:27.130Z,17344
2017-08-19T12:46:27.115Z,16432
2017-08-19T12:47:27.086Z,11572
2017-08-19T12:48:26.760Z,7240
2017-08-19T12:49:27.107Z,5132
2017-08-19T12:50:27.084Z,3744
2017-08-19T12:51:27.065Z,2516
2017-08-19T12:52:26.999Z,1944
2017-08-19T12:53:27.114Z,2560
2017-08-19T12:54:26.962Z,3624
2017-08-19T12:55:26.636Z,5284
2017-08-19T12:56:26.920Z,6308
2017-08-19T12:57:26.908Z,6712
2017-08-19T12:58:26.894Z,6680
2017-08-19T12:59:26.587Z,7604
2017-08-19T13:00:26.864Z,9500
2017-08-19T13:01:26.836Z,11824
2017-08-19T13:02:26.812Z,13980
2017-08-19T13:03:26.790Z,14784
2017-08-19T13:04:26.477Z,14492
2017-08-19T13:05:26.753Z,14576
2017-08-19T13:06:26.785Z,15164
2017-08-19T13:07:26.725Z,14912
2017-08-19T13:08:26.396Z,14796
2017-08-19T13:09:26.677Z,16036
2017-08-19T13:10:26.676Z,16300
2017-08-19T13:11:26.641Z,16080
2017-08-19T13:12:26.339Z,15952
2017-08-19T13:13:26.302Z,16012
2017-08-19T13:14:26.584Z,16440
2017-08-19T13:15:26.566Z,17248
2017-08-19T13:16:26.244Z,17632
2017-08-19T13:17:26.234Z,18208
2017-08-19T13:18:26.242Z,17920
2017-08-19T13:19:26.493Z,17120
2017-08-19T13:20:26.460Z,15772
2017-08-19T13:21:25.849Z,15940
2017-08-19T13:22:26.179Z,14956
2017-08-19T13:23:26.120Z,13796
2017-08-19T13:24:26.093Z,13692
2017-08-19T13:25:26.417Z,13732
2017-08-19T13:26:26.064Z,14260
2017-08-19T13:27:26.396Z,14416
2017-08-19T13:28:26.313Z,13716
2017-08-19T13:29:26.294Z,12164
2017-08-19T13:30:26.279Z,10220
2017-08-19T13:31:26.276Z,8936
2017-08-19T13:32:26.241Z,8004